Time,TemperatureF,DewpointF,PressureIn,WindDirection,WindDirectionDegrees,WindSpeedMPH,WindSpeedGustMPH,Humidity,HourlyPrecipIn,Conditions,Clouds,dailyrainin,SoftwareType,DateUTC
2013-07-19 08:30:00,77.7,77.7,29.97,South,180,1.0,7.0,100,0.00,,---,0.00,VWS V14.00,2013-07-19 12:30:00,
2013-07-19 08:59:00,80.4,62.8,29.98,SSE,150,2.0,2.0,55,0.00,,---,0.00,VWS V14.00,2013-07-19 12:59:00,
2013-07-19 09:00:00,80.5,62.3,29.97,SSW,213,1.0,5.0,54,0.00,,---,0.00,VWS V14.00,2013-07-19 13:00:00,
2013-07-19 09:01:00,80.5,60.2,29.98,SSE,159,5.0,5.0,50,0.00,,---,0.00,VWS V14.00,2013-07-19 13:01:00,
2013-07-19 09:02:00,80.6,59.7,29.97,SSW,209,4.0,5.0,49,0.00,,---,0.00,VWS V14.00,2013-07-19 13:02:00,
2013-07-19 09:07:00,80.8,54.2,29.97,WNW,299,1.0,1.0,40,0.00,,---,0.00,VWS V14.00,2013-07-19 13:07:00,
2013-07-19 09:12:00,81.1,50.1,29.98,SW,215,6.0,6.0,34,0.00,,---,0.00,VWS V14.00,2013-07-19 13:12:00,
2013-07-19 09:17:00,81.5,45.3,29.98,SSE,153,1.0,2.0,28,0.00,,---,0.00,VWS V14.00,2013-07-19 13:17:00,
2013-07-19 09:22:00,81.9,40.5,29.98,SE,139,3.0,5.0,23,0.00,,---,0.00,VWS V14.00,2013-07-19 13:22:00,
2013-07-19 09:27:00,82.1,24.5,29.98,SSE,153,3.0,5.0,12,0.00,,---,0.00,VWS V14.00,2013-07-19 13:27:00,
2013-07-19 09:32:00,82.4,15.2,29.98,SSW,209,0.0,0.0,8,0.00,,---,0.00,VWS V14.00,2013-07-19 13:32:00,
2013-07-19 09:37:00,82.8,5.0,29.98,SW,228,3.0,3.0,5,0.00,,---,0.00,VWS V14.00,2013-07-19 13:37:00,
2013-07-19 09:43:00,82.9,82.9,29.98,SSE,163,2.0,2.0,100,0.00,,---,0.00,VWS V14.00,2013-07-19 13:43:00,
2013-07-19 09:48:00,83.0,83.0,29.98,SSE,155,0.0,1.0,100,0.00,,---,0.00,VWS V14.00,2013-07-19 13:48:00,
2013-07-19 09:53:00,83.4,83.4,29.98,SSE,164,0.0,0.0,100,0.00,,---,0.00,VWS V14.00,2013-07-19 13:53:00,
2013-07-19 09:58:00,84.0,84.0,29.98,SSE,158,0.0,1.0,100,0.00,,---,0.00,VWS V14.00,2013-07-19 13:58:00,
2013-07-19 10:03:00,84.2,84.2,29.97,SW,216,2.0,3.0,100,0.00,,---,0.00,VWS V14.00,2013-07-19 14:03:00,
2013-07-19 10:08:00,84.4,84.4,29.97,SSE,156,0.0,0.0,100,0.00,,---,0.00,VWS V14.00,2013-07-19 14:08:00,
2013-07-19 10:13:00,84.5,84.5,29.97,South,176,2.0,2.0,100,0.00,,---,0.00,VWS V14.00,2013-07-19 14:13:00,
2013-07-19 10:18:00,84.7,84.7,29.97,SSE,165,6.0,10.0,100,0.00,,---,0.00,VWS V14.00,2013-07-19 14:18:00,
2013-07-19 10:23:00,85.1,85.1,29.97,SSW,200,0.0,1.0,100,0.00,,---,0.00,VWS V14.00,2013-07-19 14:23:00,
2013-07-19 10:29:00,85.3,85.3,29.97,SSW,205,5.0,5.0,100,0.00,,---,0.00,VWS V14.00,2013-07-19 14:29:00,
2013-07-19 10:34:00,85.4,85.4,29.97,SSW,209,1.0,2.0,100,0.00,,---,0.00,VWS V14.00,2013-07-19 14:34:00,
2013-07-19 10:39:00,85.9,85.9,29.97,SSE,152,2.0,2.0,100,0.00,,---,0.00,VWS V14.00,2013-07-19 14:39:00,
2013-07-19 10:44:00,86.1,86.1,29.96,SSE,151,6.0,6.0,100,0.00,,---,0.00,VWS V14.00,2013-07-19 14:44:00,
2013-07-19 10:49:00,86.0,86.0,29.97,West,259,0.0,0.0,100,0.00,,---,0.00,VWS V14.00,2013-07-19 14:49:00,
2013-07-19 10:55:00,86.4,86.4,29.96,SW,225,3.0,3.0,100,0.00,,---,0.00,VWS V14.00,2013-07-19 14:55:00,
2013-07-19 11:00:00,86.4,86.4,29.96,South,175,4.0,4.0,100,0.00,,---,0.00,VWS V14.00,2013-07-19 15:00:00,
2013-07-19 11:05:00,86.6,86.6,29.96,SW,219,3.0,4.0,100,0.00,,---,0.00,VWS V14.00,2013-07-19 15:05:00,
2013-07-19 11:10:00,86.8,86.8,29.96,SW,220,1.0,3.0,100,0.00,,---,0.00,VWS V14.00,2013-07-19 15:10:00,
2013-07-19 11:15:00,87.2,87.2,29.96,SSE,159,3.0,4.0,100,0.00,,---,0.00,VWS V14.00,2013-07-19 15:15:00,
2013-07-19 11:21:00,87.7,86.1,29.96,South,169,2.0,4.0,95,0.00,,---,0.00,VWS V14.00,2013-07-19 15:21:00,
2013-07-19 11:26:00,87.6,82.9,29.96,South,174,5.0,5.0,86,0.00,,---,0.00,VWS V14.00,2013-07-19 15:26:00,
2013-07-19 11:31:00,87.6,81.8,29.96,WSW,239,1.0,3.0,83,0.00,,---,0.00,VWS V14.00,2013-07-19 15:31:00,
2013-07-19 11:36:00,88.1,83.8,29.96,SE,143,0.0,0.0,87,0.00,,---,0.00,VWS V14.00,2013-07-19 15:36:00,
2013-07-19 11:41:00,88.5,81.5,29.95,WNW,290,2.0,4.0,80,0.00,,---,0.00,VWS V14.00,2013-07-19 15:41:00,
2013-07-19 11:47:00,88.4,79.5,29.96,South,173,9.0,11.0,75,0.00,,---,0.00,VWS V14.00,2013-07-19 15:47:00,
2013-07-19 11:52:00,88.5,77.0,29.95,SSW,198,4.0,4.0,69,0.00,,---,0.00,VWS V14.00,2013-07-19 15:52:00,
2013-07-19 11:57:00,88.5,76.6,29.95,SW,218,2.0,4.0,68,0.00,,---,0.00,VWS V14.00,2013-07-19 15:57:00,
2013-07-19 12:02:00,88.4,74.2,29.95,SW,220,2.0,3.0,63,0.00,,---,0.00,VWS V14.00,2013-07-19 16:02:00,
2013-07-19 12:08:00,88.4,73.7,29.94,SSE,156,2.0,5.0,62,0.00,,---,0.00,VWS V14.00,2013-07-19 16:08:00,
2013-07-19 12:13:00,88.8,73.6,29.94,West,268,1.0,4.0,61,0.00,,---,0.00,VWS V14.00,2013-07-19 16:13:00,
2013-07-19 12:18:00,89.1,72.9,29.94,SSE,161,4.0,5.0,59,0.00,,---,0.00,VWS V14.00,2013-07-19 16:18:00,
2013-07-19 12:23:00,89.2,73.0,29.94,SSE,167,0.0,3.0,59,0.00,,---,0.00,VWS V14.00,2013-07-19 16:23:00,
2013-07-19 12:28:00,89.3,72.6,29.93,SSW,210,3.0,4.0,58,0.00,,---,0.00,VWS V14.00,2013-07-19 16:28:00,
2013-07-19 12:34:00,89.5,73.3,29.94,West,269,0.0,0.0,59,0.00,,---,0.00,VWS V14.00,2013-07-19 16:34:00,
2013-07-19 12:39:00,89.4,70.6,29.93,West,267,2.0,3.0,54,0.00,,---,0.00,VWS V14.00,2013-07-19 16:39:00,
2013-07-19 12:44:00,89.7,71.9,29.93,SSW,204,5.0,7.0,56,0.00,,---,0.00,VWS V14.00,2013-07-19 16:44:00,
2013-07-19 12:49:00,89.8,71.5,29.92,South,175,2.0,6.0,55,0.00,,---,0.00,VWS V14.00,2013-07-19 16:49:00,
2013-07-19 12:55:00,89.8,71.5,29.92,SSE,159,5.0,8.0,55,0.00,,---,0.00,VWS V14.00,2013-07-19 16:55:00,
2013-07-19 13:00:00,90.1,70.7,29.92,South,169,2.0,4.0,53,0.00,,---,0.00,VWS V14.00,2013-07-19 17:00:00,
2013-07-19 13:05:00,89.8,70.4,29.92,WSW,239,1.0,2.0,53,0.00,,---,0.00,VWS V14.00,2013-07-19 17:05:00,
2013-07-19 13:10:00,90.2,70.8,29.92,SW,225,1.0,2.0,53,0.00,,---,0.00,VWS V14.00,2013-07-19 17:10:00,
2013-07-19 13:15:00,90.4,70.4,29.92,SSW,195,2.0,2.0,52,0.00,,---,0.00,VWS V14.00,2013-07-19 17:15:00,
2013-07-19 13:20:00,90.4,70.4,29.92,South,187,1.0,2.0,52,0.00,,---,0.00,VWS V14.00,2013-07-19 17:20:00,
2013-07-19 13:25:00,90.5,69.9,29.91,NW,322,3.0,4.0,51,0.00,,---,0.00,VWS V14.00,2013-07-19 17:25:00,
2013-07-19 13:31:00,90.2,68.5,29.91,SSW,208,0.0,2.0,49,0.00,,---,0.00,VWS V14.00,2013-07-19 17:31:00,
2013-07-19 13:36:00,89.6,69.1,29.91,SSW,196,4.0,5.0,51,0.00,,---,0.00,VWS V14.00,2013-07-19 17:36:00,
2013-07-19 13:41:00,89.8,67.5,29.90,South,175,1.0,3.0,48,0.00,,---,0.00,VWS V14.00,2013-07-19 17:41:00,
2013-07-19 13:46:00,90.1,69.6,29.90,SW,231,0.0,1.0,51,0.00,,---,0.00,VWS V14.00,2013-07-19 17:46:00,
2013-07-19 13:52:00,90.5,68.8,29.90,SW,226,2.0,5.0,49,0.00,,---,0.00,VWS V14.00,2013-07-19 17:52:00,
2013-07-19 13:57:00,90.9,68.5,29.90,South,180,2.0,3.0,48,0.00,,---,0.00,VWS V14.00,2013-07-19 17:57:00,
2013-07-19 14:02:00,91.2,68.2,29.90,SE,143,4.0,5.0,47,0.00,,---,0.00,VWS V14.00,2013-07-19 18:02:00,
2013-07-19 14:07:00,91.1,64.1,29.90,SSE,155,7.0,7.0,41,0.00,,---,0.00,VWS V14.00,2013-07-19 18:07:00,
2013-07-19 14:12:00,91.0,66.1,29.89,SW,225,0.0,1.0,44,0.00,,---,0.00,VWS V14.00,2013-07-19 18:12:00,
2013-07-19 14:18:00,91.0,67.4,29.89,ESE,122,0.0,3.0,46,0.00,,---,0.00,VWS V14.00,2013-07-19 18:18:00,
2013-07-19 14:23:00,91.2,67.6,29.89,SE,146,4.0,5.0,46,0.00,,---,0.00,VWS V14.00,2013-07-19 18:23:00,
2013-07-19 14:28:00,91.7,66.7,29.88,WSW,239,5.0,6.0,44,0.00,,---,0.00,VWS V14.00,2013-07-19 18:28:00,
2013-07-19 14:33:00,91.7,66.1,29.88,SW,229,1.0,1.0,43,0.00,,---,0.00,VWS V14.00,2013-07-19 18:33:00,
2013-07-19 14:38:00,92.0,64.9,29.88,SE,142,3.0,9.0,41,0.00,,---,0.00,VWS V14.00,2013-07-19 18:38:00,
2013-07-19 14:44:00,92.0,64.2,29.88,SSW,200,3.0,3.0,40,0.00,,---,0.00,VWS V14.00,2013-07-19 18:44:00,
2013-07-19 14:49:00,91.5,64.5,29.87,SSW,211,4.0,4.0,41,0.00,,---,0.00,VWS V14.00,2013-07-19 18:49:00,
2013-07-19 14:54:00,91.4,63.7,29.87,SSE,161,5.0,5.0,40,0.00,,---,0.00,VWS V14.00,2013-07-19 18:54:00,
2013-07-19 14:59:00,91.5,63.8,29.87,South,191,3.0,7.0,40,0.00,,---,0.00,VWS V14.00,2013-07-19 18:59:00,
2013-07-19 15:04:00,91.5,65.2,29.86,SSW,198,5.0,6.0,42,0.00,,---,0.00,VWS V14.00,2013-07-19 19:04:00,
2013-07-19 15:10:00,91.6,65.3,29.86,South,176,1.0,3.0,42,0.00,,---,0.00,VWS V14.00,2013-07-19 19:10:00,
2013-07-19 15:15:00,91.8,62.6,29.86,South,174,6.0,6.0,38,0.00,,---,0.00,VWS V14.00,2013-07-19 19:15:00,
2013-07-19 15:20:00,91.7,63.2,29.85,SSW,211,6.0,8.0,39,0.00,,---,0.00,VWS V14.00,2013-07-19 19:20:00,
2013-07-19 15:25:00,91.8,62.6,29.85,South,186,2.0,4.0,38,0.00,,---,0.00,VWS V14.00,2013-07-19 19:25:00,
2013-07-19 15:31:00,91.9,63.4,29.85,SSE,161,6.0,7.0,39,0.00,,---,0.00,VWS V14.00,2013-07-19 19:31:00,
2013-07-19 15:36:00,92.1,64.3,29.85,South,191,8.0,8.0,40,0.00,,---,0.00,VWS V14.00,2013-07-19 19:36:00,
2013-07-19 15:41:00,92.5,65.4,29.85,SSE,150,3.0,3.0,41,0.00,,---,0.00,VWS V14.00,2013-07-19 19:41:00,
2013-07-19 15:46:00,92.1,64.3,29.85,SE,142,3.0,5.0,40,0.00,,---,0.00,VWS V14.00,2013-07-19 19:46:00,
2013-07-19 15:51:00,92.1,66.4,29.85,East,100,0.0,2.0,43,0.00,,---,0.00,VWS V14.00,2013-07-19 19:51:00,
2013-07-19 15:57:00,92.2,65.1,29.85,SSE,149,6.0,6.0,41,0.00,,---,0.00,VWS V14.00,2013-07-19 19:57:00,
2013-07-19 16:02:00,91.9,65.6,29.85,South,184,5.0,9.0,42,0.00,,---,0.00,VWS V14.00,2013-07-19 20:02:00,
2013-07-19 16:07:00,91.8,64.8,29.84,South,190,2.0,5.0,41,0.00,,---,0.00,VWS V14.00,2013-07-19 20:07:00,
2013-07-19 16:12:00,91.9,65.6,29.84,WSW,253,2.0,3.0,42,0.00,,---,0.00,VWS V14.00,2013-07-19 20:12:00,
2013-07-19 16:17:00,91.8,64.8,29.84,SW,233,2.0,2.0,41,0.00,,---,0.00,VWS V14.00,2013-07-19 20:17:00,
2013-07-19 16:23:00,91.6,64.6,29.84,South,188,3.0,3.0,41,0.00,,---,0.00,VWS V14.00,2013-07-19 20:23:00,
2013-07-19 16:28:00,91.6,63.2,29.84,SSE,164,4.0,4.0,39,0.00,,---,0.00,VWS V14.00,2013-07-19 20:28:00,
2013-07-19 16:33:00,92.2,65.1,29.84,SSE,160,1.0,6.0,41,0.00,,---,0.00,VWS V14.00,2013-07-19 20:33:00,
2013-07-19 16:38:00,92.4,65.3,29.83,South,188,4.0,4.0,41,0.00,,---,0.00,VWS V14.00,2013-07-19 20:38:00,
2013-07-19 16:43:00,92.5,64.7,29.83,SE,132,1.0,4.0,40,0.00,,---,0.00,VWS V14.00,2013-07-19 20:43:00,
2013-07-19 16:48:00,92.1,64.3,29.84,SW,234,3.0,3.0,40,0.00,,---,0.00,VWS V14.00,2013-07-19 20:48:00,
2013-07-19 16:54:00,92.0,62.8,29.83,SW,220,4.0,4.0,38,0.00,,---,0.00,VWS V14.00,2013-07-19 20:54:00,
2013-07-19 16:59:00,91.8,62.6,29.83,SSE,155,5.0,6.0,38,0.00,,---,0.00,VWS V14.00,2013-07-19 20:59:00,
2013-07-19 17:04:00,91.8,64.1,29.83,SW,221,0.0,1.0,40,0.00,,---,0.00,VWS V14.00,2013-07-19 21:04:00,
2013-07-19 17:09:00,92.0,64.2,29.83,SW,218,5.0,5.0,40,0.00,,---,0.00,VWS V14.00,2013-07-19 21:09:00,
2013-07-19 17:14:00,91.5,63.1,29.83,SSE,167,3.0,4.0,39,0.00,,---,0.00,VWS V14.00,2013-07-19 21:14:00,
2013-07-19 17:19:00,91.2,63.5,29.83,SW,218,3.0,4.0,40,0.00,,---,0.00,VWS V14.00,2013-07-19 21:19:00,
2013-07-19 17:25:00,91.2,62.1,29.83,WSW,241,4.0,5.0,38,0.00,,---,0.00,VWS V14.00,2013-07-19 21:25:00,
2013-07-19 17:30:00,90.6,62.3,29.83,SSE,148,0.0,0.0,39,0.00,,---,0.00,VWS V14.00,2013-07-19 21:30:00,
2013-07-19 17:35:00,90.5,62.9,29.83,SSE,148,0.0,1.0,40,0.00,,---,0.00,VWS V14.00,2013-07-19 21:35:00,
2013-07-19 17:40:00,90.5,62.9,29.82,South,171,0.0,0.0,40,0.00,,---,0.00,VWS V14.00,2013-07-19 21:40:00,
2013-07-19 17:45:00,90.6,63.0,29.82,SSE,155,3.0,3.0,40,0.00,,---,0.00,VWS V14.00,2013-07-19 21:45:00,
2013-07-19 17:50:00,90.6,63.0,29.82,SSE,147,1.0,1.0,40,0.00,,---,0.00,VWS V14.00,2013-07-19 21:50:00,
2013-07-19 17:55:00,90.8,63.9,29.82,SE,138,0.0,6.0,41,0.00,,---,0.00,VWS V14.00,2013-07-19 21:55:00,
2013-07-19 18:01:00,90.8,63.2,29.83,SSE,159,6.0,6.0,40,0.00,,---,0.00,VWS V14.00,2013-07-19 22:01:00,
2013-07-19 18:06:00,90.7,63.1,29.82,SW,231,0.0,1.0,40,0.00,,---,0.00,VWS V14.00,2013-07-19 22:06:00,
2013-07-19 18:11:00,90.7,63.1,29.82,SSE,147,3.0,5.0,40,0.00,,---,0.00,VWS V14.00,2013-07-19 22:11:00,
2013-07-19 18:16:00,90.8,63.2,29.82,SSE,151,1.0,4.0,40,0.00,,---,0.00,VWS V14.00,2013-07-19 22:16:00,
2013-07-19 18:21:00,90.8,63.2,29.82,WSW,237,2.0,3.0,40,0.00,,---,0.00,VWS V14.00,2013-07-19 22:21:00,
2013-07-19 18:26:00,90.7,63.1,29.82,South,173,1.0,2.0,40,0.00,,---,0.00,VWS V14.00,2013-07-19 22:26:00,
2013-07-19 18:31:00,90.6,63.7,29.82,SE,144,4.0,7.0,41,0.00,,---,0.00,VWS V14.00,2013-07-19 22:31:00,
2013-07-19 18:37:00,90.3,63.4,29.82,WSW,243,0.0,0.0,41,0.00,,---,0.00,VWS V14.00,2013-07-19 22:37:00,
2013-07-19 18:42:00,90.3,64.1,29.82,SE,143,0.0,0.0,42,0.00,,---,0.00,VWS V14.00,2013-07-19 22:42:00,
2013-07-19 18:47:00,90.0,64.5,29.82,SSE,156,2.0,5.0,43,0.00,,---,0.00,VWS V14.00,2013-07-19 22:47:00,
2013-07-19 18:52:00,89.8,63.7,29.82,SSE,156,0.0,0.0,42,0.00,,---,0.00,VWS V14.00,2013-07-19 22:52:00,
2013-07-19 18:57:00,89.4,63.3,29.82,SW,235,2.0,4.0,42,0.00,,---,0.00,VWS V14.00,2013-07-19 22:57:00,
2013-07-19 19:02:00,89.1,63.7,29.82,SW,236,0.0,1.0,43,0.00,,---,0.00,VWS V14.00,2013-07-19 23:02:00,
2013-07-19 19:07:00,88.8,64.7,29.82,South,184,0.0,0.0,45,0.00,,---,0.00,VWS V14.00,2013-07-19 23:07:00,
2013-07-19 19:13:00,88.7,64.0,29.82,South,181,4.0,4.0,44,0.00,,---,0.00,VWS V14.00,2013-07-19 23:13:00,
2013-07-19 19:18:00,88.4,64.4,29.82,WSW,244,3.0,4.0,45,0.00,,---,0.00,VWS V14.00,2013-07-19 23:18:00,
2013-07-19 19:23:00,88.1,64.1,29.82,SSE,159,3.0,4.0,45,0.00,,---,0.00,VWS V14.00,2013-07-19 23:23:00,
2013-07-19 19:28:00,87.9,63.9,29.82,SSW,193,0.0,0.0,45,0.00,,---,0.00,VWS V14.00,2013-07-19 23:28:00,
2013-07-19 19:33:00,87.7,64.4,29.82,SSE,155,1.0,1.0,46,0.00,,---,0.00,VWS V14.00,2013-07-19 23:33:00,
2013-07-19 19:38:00,87.5,64.2,29.82,South,188,2.0,5.0,46,0.00,,---,0.00,VWS V14.00,2013-07-19 23:38:00,
2013-07-19 19:43:00,87.4,64.7,29.83,SE,138,0.0,0.0,47,0.00,,---,0.00,VWS V14.00,2013-07-19 23:43:00,
2013-07-19 19:49:00,87.3,64.6,29.82,WSW,237,0.0,0.0,47,0.00,,---,0.00,VWS V14.00,2013-07-19 23:49:00,
2013-07-19 19:54:00,87.1,65.1,29.82,SSW,198,3.0,5.0,48,0.00,,---,0.00,VWS V14.00,2013-07-19 23:54:00,
2013-07-19 19:59:00,87.0,65.0,29.83,SSW,206,2.0,2.0,48,0.00,,---,0.00,VWS V14.00,2013-07-19 23:59:00,
2013-07-19 20:04:00,86.8,65.4,29.82,SSW,198,1.0,2.0,49,0.00,,---,0.00,VWS V14.00,2013-07-20 00:04:00,
2013-07-19 20:22:00,75.5,74.0,29.81,SW,231,0.0,0.0,95,0.07,,---,0.08,VWS V14.00,2013-07-20 00:22:00,
2013-07-19 20:27:00,75.4,75.4,29.82,SW,231,2.0,2.0,100,0.08,,---,0.09,VWS V14.00,2013-07-20 00:27:00,
2013-07-19 20:34:00,74.3,9.2,29.82,WSW,237,0.0,0.0,8,0.09,,---,0.12,VWS V14.00,2013-07-20 00:34:00,
2013-07-19 20:43:00,74.3,37.2,29.82,WSW,238,0.0,1.0,26,0.09,,---,0.13,VWS V14.00,2013-07-20 00:43:00,
2013-07-19 20:51:00,74.4,51.1,29.81,ENE,62,0.0,0.0,44,0.10,,---,0.16,VWS V14.00,2013-07-20 00:51:00,